createdAt,value
2023-05-20T00:00:01.860Z,14.41
2023-05-20T00:04:04.355Z,14.38
2023-05-20T00:08:09.424Z,14.40
2023-05-20T00:12:11.517Z,14.43
2023-05-20T00:16:14.203Z,14.49
2023-05-20T00:20:16.533Z,14.30
2023-05-20T00:24:18.540Z,14.24
2023-05-20T00:28:21.161Z,14.31
2023-05-20T00:32:25.020Z,14.29
2023-05-20T00:36:27.615Z,14.10
2023-05-20T00:40:29.694Z,14.14
2023-05-20T00:44:31.847Z,14.19
2023-05-20T00:48:41.269Z,14.08
2023-05-20T00:52:45.289Z,14.02
2023-05-20T00:56:47.822Z,14.00
2023-05-20T01:00:50.520Z,13.86
2023-05-20T01:04:53.228Z,13.80
2023-05-20T01:08:55.432Z,13.74
2023-05-20T01:13:01.777Z,13.71
2023-05-20T01:17:09.641Z,13.69
2023-05-20T01:21:13.848Z,13.58
2023-05-20T01:25:16.845Z,13.51
2023-05-20T01:29:22.347Z,13.48
2023-05-20T01:33:25.476Z,13.51
2023-05-20T01:37:28.633Z,13.57
2023-05-20T01:41:32.009Z,13.61
2023-05-20T01:45:34.394Z,13.53
2023-05-20T01:49:36.917Z,13.60
2023-05-20T01:53:39.016Z,13.65
2023-05-20T01:57:40.726Z,13.69
2023-05-20T02:01:43.231Z,13.61
2023-05-20T02:05:45.721Z,13.64
2023-05-20T02:09:47.943Z,13.63
2023-05-20T02:13:51.144Z,13.63
2023-05-20T02:17:53.854Z,13.62
2023-05-20T02:21:56.110Z,13.60
2023-05-20T02:25:58.205Z,13.68
2023-05-20T02:30:00.746Z,13.67
2023-05-20T02:34:02.932Z,13.64
2023-05-20T02:38:05.098Z,13.57
2023-05-20T02:42:07.189Z,13.60
2023-05-20T02:46:09.318Z,13.57
2023-05-20T02:50:11.396Z,13.56
2023-05-20T02:54:13.440Z,13.65
2023-05-20T02:58:15.599Z,13.65
2023-05-20T03:02:17.572Z,13.58
2023-05-20T03:06:20.388Z,13.65
2023-05-20T03:10:22.740Z,13.64
2023-05-20T03:14:24.803Z,13.63
2023-05-20T03:18:27.274Z,13.74
2023-05-20T03:22:29.726Z,13.80
2023-05-20T03:26:33.922Z,13.86
2023-05-20T03:30:35.800Z,13.93
2023-05-20T03:34:38.393Z,13.82
2023-05-20T03:38:40.777Z,13.90
2023-05-20T03:42:43.085Z,13.99
2023-05-20T03:46:45.892Z,14.13
2023-05-20T03:50:49.905Z,14.27
2023-05-20T03:54:52.322Z,14.32
2023-05-20T03:58:54.496Z,14.32
2023-05-20T04:02:56.766Z,14.45
2023-05-20T04:07:03.244Z,14.51
2023-05-20T04:11:06.176Z,14.57
2023-05-20T04:15:09.162Z,14.76
2023-05-20T04:19:20.203Z,14.76
2023-05-20T04:23:22.690Z,14.77
2023-05-20T04:27:25.849Z,14.88
2023-05-20T04:31:28.382Z,14.97
2023-05-20T04:35:30.503Z,15.04
2023-05-20T04:39:36.970Z,15.18
2023-05-20T04:43:40.328Z,15.23
2023-05-20T04:47:44.420Z,15.24
2023-05-20T04:51:47.517Z,15.42
2023-05-20T04:55:53.912Z,15.56
2023-05-20T04:59:58.818Z,15.53
2023-05-20T05:04:02.752Z,15.70
2023-05-20T05:08:06.122Z,15.79
2023-05-20T05:12:10.135Z,15.76
2023-05-20T05:16:12.331Z,15.91
2023-05-20T05:20:14.642Z,16.05
2023-05-20T05:24:16.903Z,16.24
2023-05-20T05:28:19.127Z,16.20
2023-05-20T05:32:21.217Z,16.34
2023-05-20T05:36:25.961Z,16.42
2023-05-20T05:40:28.160Z,16.42
2023-05-20T05:44:30.947Z,16.61
2023-05-20T05:48:33.384Z,16.76
2023-05-20T05:52:36.294Z,16.82
2023-05-20T05:56:40.007Z,16.99
2023-05-20T06:00:42.082Z,16.99
2023-05-20T06:04:45.199Z,17.18
2023-05-20T06:08:47.366Z,17.23
2023-05-20T06:12:49.613Z,17.41
2023-05-20T06:16:52.571Z,17.65
2023-05-20T06:20:58.316Z,17.85
2023-05-20T06:25:02.562Z,18.00
2023-05-20T06:29:06.068Z,18.34
2023-05-20T06:33:08.910Z,18.51
2023-05-20T06:37:11.469Z,19.01
2023-05-20T06:41:13.683Z,18.98
2023-05-20T06:45:15.893Z,19.10
2023-05-20T06:49:26.582Z,19.35
2023-05-20T06:53:30.060Z,19.41
2023-05-20T06:57:32.711Z,19.28
2023-05-20T07:01:34.873Z,19.63
2023-05-20T07:05:37.631Z,19.80
2023-05-20T07:09:40.558Z,20.01
2023-05-20T07:13:43.331Z,20.23
2023-05-20T07:17:45.571Z,20.34
2023-05-20T07:21:49.719Z,20.70
2023-05-20T07:26:18.334Z,20.96
2023-05-20T07:30:20.707Z,21.23
2023-05-20T07:34:38.506Z,20.93
2023-05-20T07:38:43.018Z,21.14
2023-05-20T07:42:53.629Z,21.44
2023-05-20T07:46:56.276Z,21.75
2023-05-20T07:50:59.252Z,21.62
2023-05-20T07:55:03.843Z,21.94
2023-05-20T07:59:06.124Z,22.16
2023-05-20T08:03:14.625Z,22.38
2023-05-20T08:07:28.101Z,22.34
2023-05-20T08:11:31.026Z,22.67
2023-05-20T08:15:33.904Z,22.86
2023-05-20T08:19:36.989Z,22.86
2023-05-20T08:23:40.496Z,23.04
2023-05-20T08:27:43.167Z,22.99
2023-05-20T08:31:45.638Z,23.11
2023-05-20T08:35:49.041Z,23.10
2023-05-20T08:39:51.311Z,22.64
2023-05-20T08:43:55.125Z,22.93
2023-05-20T08:47:58.476Z,22.99
2023-05-20T08:52:01.472Z,22.67
2023-05-20T08:56:03.953Z,22.77
2023-05-20T09:00:10.736Z,22.64
2023-05-20T09:04:12.848Z,22.91
2023-05-20T09:08:15.119Z,23.27
2023-05-20T09:12:17.133Z,23.39
2023-05-20T09:16:19.324Z,23.57
2023-05-20T09:20:23.246Z,23.45
2023-05-20T09:24:26.891Z,23.76
2023-05-20T09:28:29.129Z,23.71
2023-05-20T09:32:31.457Z,23.52
2023-05-20T09:36:35.082Z,23.29
2023-05-20T09:40:41.295Z,24.08
2023-05-20T09:44:45.464Z,23.77
2023-05-20T09:48:47.861Z,23.48
2023-05-20T09:52:51.496Z,24.07
2023-05-20T09:56:54.397Z,24.15
2023-05-20T10:00:56.536Z,24.03
2023-05-20T10:05:01.508Z,23.52
2023-05-20T10:09:28.261Z,23.47
2023-05-20T10:14:07.637Z,23.66
2023-05-20T10:18:54.571Z,23.66
2023-05-20T10:22:58.175Z,24.35
2023-05-20T10:27:02.899Z,24.60
2023-05-20T10:31:24.214Z,24.27
2023-05-20T10:35:27.497Z,23.63
2023-05-20T10:39:34.194Z,23.67
2023-05-20T10:43:36.329Z,23.71
2023-05-20T10:47:53.709Z,24.39
2023-05-20T10:51:56.260Z,23.88
2023-05-20T10:55:58.148Z,24.43
2023-05-20T11:00:01.261Z,24.84
2023-05-20T11:04:05.323Z,25.41
2023-05-20T11:08:20.510Z,25.13
2023-05-20T11:12:30.373Z,24.98
2023-05-20T11:16:32.586Z,25.34
2023-05-20T11:20:35.597Z,25.98
2023-05-20T11:24:37.869Z,25.30
2023-05-20T11:28:40.166Z,25.15
2023-05-20T11:32:58.155Z,25.12
2023-05-20T11:37:01.136Z,25.91
2023-05-20T11:41:03.285Z,25.48
2023-05-20T11:45:05.514Z,24.79
2023-05-20T11:49:08.624Z,24.42
2023-05-20T11:53:14.570Z,24.69
2023-05-20T11:57:16.733Z,24.19
2023-05-20T12:01:23.419Z,24.03
2023-05-20T12:05:25.674Z,24.13
2023-05-20T12:09:27.579Z,23.83
2023-05-20T12:13:29.743Z,24.02
2023-05-20T12:17:52.739Z,24.90
2023-05-20T12:21:54.863Z,25.22
2023-05-20T12:25:57.003Z,24.95
2023-05-20T12:29:59.292Z,24.35
2023-05-20T12:34:01.395Z,24.00
2023-05-20T12:38:03.486Z,23.93
2023-05-20T12:42:05.862Z,23.54
2023-05-20T12:46:08.219Z,24.06
2023-05-20T12:50:10.926Z,24.52
2023-05-20T12:54:13.036Z,24.86
2023-05-20T12:58:15.293Z,24.16
2023-05-20T13:02:17.697Z,23.94
2023-05-20T13:06:19.794Z,23.63
2023-05-20T13:10:22.351Z,23.44
2023-05-20T13:14:24.538Z,23.33
2023-05-20T13:18:26.569Z,23.56
2023-05-20T13:22:28.639Z,23.59
2023-05-20T13:26:30.715Z,24.08
2023-05-20T13:30:33.034Z,24.54
2023-05-20T13:34:35.510Z,25.07
2023-05-20T13:38:37.904Z,25.55
2023-05-20T13:42:40.075Z,25.13
2023-05-20T13:46:42.278Z,24.81
2023-05-20T13:50:44.386Z,24.31
2023-05-20T13:54:48.653Z,24.01
2023-05-20T13:58:51.116Z,24.16
2023-05-20T14:02:53.636Z,23.94
2023-05-20T14:06:56.236Z,24.29
2023-05-20T14:10:58.533Z,24.64
2023-05-20T14:15:01.095Z,24.90
2023-05-20T14:19:03.361Z,25.41
2023-05-20T14:23:05.442Z,25.01
2023-05-20T14:27:07.554Z,24.80
2023-05-20T14:31:10.741Z,25.27
2023-05-20T14:35:12.873Z,25.46
2023-05-20T14:39:15.096Z,25.86
2023-05-20T14:43:17.611Z,25.83
2023-05-20T14:47:22.170Z,25.35
2023-05-20T14:51:24.793Z,25.13
2023-05-20T14:55:26.878Z,24.99
2023-05-20T14:59:29.047Z,24.89
2023-05-20T15:03:31.678Z,24.95
2023-05-20T15:07:33.939Z,24.90
2023-05-20T15:11:36.077Z,24.72
2023-05-20T15:15:38.037Z,24.85
2023-05-20T15:19:41.718Z,24.73
2023-05-20T15:23:44.591Z,24.61
2023-05-20T15:27:46.677Z,25.13
2023-05-20T15:31:49.176Z,25.46
2023-05-20T15:35:51.245Z,25.85
2023-05-20T15:39:53.811Z,25.84
2023-05-20T15:43:55.988Z,25.24
2023-05-20T15:47:58.303Z,24.58
2023-05-20T15:52:03.678Z,24.20
2023-05-20T15:56:07.102Z,23.82
2023-05-20T16:00:14.052Z,23.92
2023-05-20T16:04:16.477Z,23.63
2023-05-20T16:08:20.841Z,23.54
2023-05-20T16:12:23.767Z,23.54
2023-05-20T16:16:26.252Z,23.29
2023-05-20T16:20:28.462Z,23.10
2023-05-20T16:24:30.782Z,22.98
2023-05-20T16:28:32.939Z,22.94
2023-05-20T16:32:35.392Z,22.88
2023-05-20T16:36:37.568Z,22.75
2023-05-20T16:40:39.873Z,22.58
2023-05-20T16:44:41.987Z,22.56
2023-05-20T16:48:44.126Z,22.44
2023-05-20T16:52:46.413Z,22.39
2023-05-20T16:56:49.687Z,22.26
2023-05-20T17:00:51.772Z,22.24
2023-05-20T17:04:53.937Z,22.16
2023-05-20T17:08:56.592Z,22.02
2023-05-20T17:12:58.672Z,21.97
2023-05-20T17:17:00.888Z,21.85
2023-05-20T17:21:03.175Z,21.66
2023-05-20T17:25:06.326Z,21.66
2023-05-20T17:29:08.486Z,21.46
2023-05-20T17:33:12.738Z,21.34
2023-05-20T17:37:14.989Z,21.13
2023-05-20T17:41:21.772Z,21.11
2023-05-20T17:45:23.794Z,20.95
2023-05-20T17:49:26.344Z,20.79
2023-05-20T17:53:28.410Z,20.67
2023-05-20T17:57:30.526Z,20.54
2023-05-20T18:01:32.812Z,20.38
2023-05-20T18:05:35.150Z,20.17
2023-05-20T18:09:37.585Z,20.05
2023-05-20T18:13:39.919Z,19.85
2023-05-20T18:17:42.093Z,19.67
2023-05-20T18:21:44.427Z,19.45
2023-05-20T18:25:46.726Z,19.25
2023-05-20T18:29:50.011Z,19.04
2023-05-20T18:33:52.322Z,18.79
2023-05-20T18:37:54.442Z,18.52
2023-05-20T18:41:56.455Z,18.33
2023-05-20T18:45:58.592Z,18.10
2023-05-20T18:50:01.170Z,17.96
2023-05-20T18:54:03.634Z,17.74
2023-05-20T18:58:05.688Z,17.54
2023-05-20T19:02:08.254Z,17.32
2023-05-20T19:06:13.789Z,17.12
2023-05-20T19:10:16.601Z,16.93
2023-05-20T19:14:18.577Z,16.76
2023-05-20T19:18:21.495Z,16.58
2023-05-20T19:22:24.423Z,16.49
2023-05-20T19:26:26.814Z,16.42
2023-05-20T19:30:28.903Z,16.30
2023-05-20T19:34:31.245Z,16.17
2023-05-20T19:38:33.575Z,16.01
2023-05-20T19:42:35.789Z,15.87
2023-05-20T19:46:38.134Z,15.76
2023-05-20T19:50:40.444Z,15.67
2023-05-20T19:54:43.016Z,15.64
2023-05-20T19:58:48.524Z,15.51
2023-05-20T20:02:51.236Z,15.50
2023-05-20T20:06:54.173Z,15.40
2023-05-20T20:10:56.618Z,15.31
2023-05-20T20:14:58.722Z,15.21
2023-05-20T20:19:01.271Z,15.13
2023-05-20T20:23:03.580Z,15.12
2023-05-20T20:27:05.914Z,15.06
2023-05-20T20:31:08.042Z,15.10
2023-05-20T20:35:10.841Z,15.17
2023-05-20T20:39:19.049Z,15.12
2023-05-20T20:43:22.827Z,15.10
2023-05-20T20:47:29.274Z,15.14
2023-05-20T20:51:31.790Z,14.99
2023-05-20T20:55:34.414Z,15.06
2023-05-20T20:59:36.817Z,15.13
2023-05-20T21:03:40.431Z,15.17
2023-05-20T21:07:46.059Z,15.22
2023-05-20T21:11:49.438Z,15.25
2023-05-20T21:15:51.750Z,15.21
2023-05-20T21:19:56.735Z,15.26
2023-05-20T21:23:58.800Z,15.35
2023-05-20T21:28:00.902Z,15.40
2023-05-20T21:32:03.188Z,15.37
2023-05-20T21:36:06.641Z,15.51
2023-05-20T21:40:09.236Z,15.49
2023-05-20T21:44:11.475Z,15.57
2023-05-20T21:48:13.582Z,15.57
2023-05-20T21:52:15.609Z,15.53
2023-05-20T21:56:17.838Z,15.44
2023-05-20T22:00:20.751Z,15.47
2023-05-20T22:04:23.178Z,15.49
2023-05-20T22:08:26.445Z,15.46
2023-05-20T22:12:29.252Z,15.32
2023-05-20T22:16:31.298Z,15.22
2023-05-20T22:20:33.821Z,15.06
2023-05-20T22:24:35.869Z,15.08
2023-05-20T22:28:37.497Z,15.06
2023-05-20T22:32:40.397Z,14.97
2023-05-20T22:36:42.542Z,14.88
2023-05-20T22:40:44.582Z,14.82
2023-05-20T22:44:46.765Z,14.80
2023-05-20T22:48:49.387Z,14.74
2023-05-20T22:52:51.570Z,14.66
2023-05-20T22:56:57.997Z,14.67
2023-05-20T23:01:00.241Z,14.55
2023-05-20T23:05:04.135Z,14.47
2023-05-20T23:09:07.362Z,14.36
2023-05-20T23:13:09.408Z,14.23
2023-05-20T23:17:11.123Z,14.20
2023-05-20T23:21:14.375Z,14.12
2023-05-20T23:25:16.500Z,13.98
2023-05-20T23:29:18.571Z,13.87
2023-05-20T23:33:25.038Z,13.74
2023-05-20T23:37:28.443Z,13.51
2023-05-20T23:41:30.584Z,13.56
2023-05-20T23:45:32.614Z,13.53
2023-05-20T23:49:35.477Z,13.50
2023-05-20T23:53:37.545Z,13.45
2023-05-20T23:57:40.623Z,13.20
